Time;durP1;ratioP1;P1;durP2;ratioP2;P2;SDS_P1;SDS_P2;PMS_P1;PMS_P2;Temp;Humidity;BMP_temperature;BMP_pressure;BME280_temperature;BME280_humidity;BME280_pressure;Samples;Min_cycle;Max_cycle;Signal;HPM_P1;HPM_P2
2021/09/04 00:01:24;;;;;;;48.45;18.30;;;;;;;;;;5054793;28;20059;-76
2021/09/04 00:03:49;;;;;;;45.63;17.80;;;;;;;;;;5054802;28;20032;-76
2021/09/04 00:06:14;;;;;;;50.25;18.92;;;;;;;;;;5054739;28;20074;-75
2021/09/04 00:08:42;;;;;;;42.05;17.38;;;;;;;;;;5054745;28;20051;-76
2021/09/04 00:11:07;;;;;;;40.22;16.77;;;;;;;;;;5054835;28;20083;-75
2021/09/04 00:13:32;;;;;;;43.95;17.48;;;;;;;;;;5054642;28;20378;-75
2021/09/04 00:15:58;;;;;;;40.45;15.88;;;;;;;;;;5054369;28;20761;-75
2021/09/04 00:18:23;;;;;;;39.08;15.88;;;;;;;;;;5054500;28;20471;-76
2021/09/04 00:20:48;;;;;;;36.30;15.30;;;;;;;;;;5054490;28;20449;-76
2021/09/04 00:23:13;;;;;;;38.45;16.50;;;;;;;;;;5054455;28;20431;-75
2021/09/04 00:25:39;;;;;;;37.08;15.93;;;;;;;;;;5053580;28;20545;-77
2021/09/04 00:28:04;;;;;;;39.40;15.45;;;;;;;;;;5054455;28;20017;-75
2021/09/04 00:30:29;;;;;;;38.63;16.40;;;;;;;;;;5054348;28;20036;-75
2021/09/04 00:32:55;;;;;;;41.33;16.17;;;;;;;;;;5053393;28;20048;-75
2021/09/04 00:35:20;;;;;;;40.15;15.73;;;;;;;;;;5053786;28;20043;-75
2021/09/04 00:37:45;;;;;;;42.35;15.68;;;;;;;;;;5053818;28;20052;-75
2021/09/04 00:40:11;;;;;;;35.08;14.93;;;;;;;;;;5054034;28;20033;-75
2021/09/04 00:42:36;;;;;;;30.88;14.70;;;;;;;;;;5054063;28;20020;-75
2021/09/04 00:45:02;;;;;;;39.05;16.05;;;;;;;;;;5054061;28;20051;-76
2021/09/04 00:47:27;;;;;;;32.47;14.43;;;;;;;;;;5053982;28;20083;-75
2021/09/04 00:49:52;;;;;;;36.17;14.70;;;;;;;;;;5054041;28;20021;-75
2021/09/04 00:52:18;;;;;;;31.40;13.63;;;;;;;;;;5053506;28;20355;-75
2021/09/04 00:54:44;;;;;;;35.03;14.35;;;;;;;;;;5053791;28;20049;-75
2021/09/04 00:57:09;;;;;;;31.30;13.95;;;;;;;;;;5053875;28;20032;-75
2021/09/04 00:59:35;;;;;;;29.98;13.05;;;;;;;;;;5053360;28;20225;-75
2021/09/04 01:02:00;;;;;;;30.55;13.55;;;;;;;;;;5053865;28;20041;-75
2021/09/04 01:04:25;;;;;;;29.77;13.55;;;;;;;;;;5053656;28;20024;-75
2021/09/04 01:06:51;;;;;;;23.75;12.30;;;;;;;;;;5053705;28;20132;-75
2021/09/04 01:09:16;;;;;;;29.27;11.88;;;;;;;;;;5053708;28;20029;-75
2021/09/04 01:11:42;;;;;;;27.20;11.73;;;;;;;;;;5053537;28;20017;-75
2021/09/04 01:14:07;;;;;;;25.38;13.57;;;;;;;;;;5053676;28;20470;-75
2021/09/04 01:16:42;;;;;;;23.17;12.68;;;;;;;;;;5053482;28;20112;-76
2021/09/04 01:19:09;;;;;;;25.88;12.20;;;;;;;;;;5053542;28;20025;-75
2021/09/04 01:21:34;;;;;;;24.80;12.48;;;;;;;;;;5053483;28;20072;-75
2021/09/04 01:24:00;;;;;;;21.77;11.48;;;;;;;;;;5053454;28;20053;-75
2021/09/04 01:26:26;;;;;;;23.13;11.40;;;;;;;;;;5053330;28;20071;-75
2021/09/04 01:28:51;;;;;;;20.40;10.93;;;;;;;;;;5053081;28;20482;-75
2021/09/04 01:31:17;;;;;;;19.80;10.75;;;;;;;;;;5053390;28;20100;-76
2021/09/04 01:33:43;;;;;;;15.88;9.45;;;;;;;;;;5052782;28;20052;-76
2021/09/04 01:36:09;;;;;;;19.75;10.48;;;;;;;;;;5053381;28;20065;-75
2021/09/04 01:38:34;;;;;;;18.42;10.60;;;;;;;;;;5053329;28;20053;-75
2021/09/04 01:40:59;;;;;;;18.63;10.50;;;;;;;;;;5053283;28;20449;-76
2021/09/04 01:43:24;;;;;;;24.40;11.40;;;;;;;;;;5053170;28;20491;-75
2021/09/04 01:45:50;;;;;;;16.05;10.25;;;;;;;;;;5053035;28;20063;-74
2021/09/04 01:48:15;;;;;;;28.83;11.23;;;;;;;;;;5053199;28;20028;-75
2021/09/04 01:50:40;;;;;;;20.25;10.75;;;;;;;;;;5053237;28;20461;-75
2021/09/04 01:53:05;;;;;;;17.88;10.52;;;;;;;;;;5052978;28;20181;-75
2021/09/04 01:55:31;;;;;;;17.70;10.30;;;;;;;;;;5051906;28;20033;-76
2021/09/04 01:57:56;;;;;;;18.13;10.35;;;;;;;;;;5052952;28;20029;-75
2021/09/04 02:00:21;;;;;;;21.63;10.80;;;;;;;;;;5053089;28;20024;-75
2021/09/04 02:02:47;;;;;;;23.38;10.25;;;;;;;;;;5052536;28;20462;-76
2021/09/04 02:05:12;;;;;;;19.88;9.73;;;;;;;;;;5052722;28;20040;-76
2021/09/04 02:07:38;;;;;;;25.98;10.40;;;;;;;;;;5052991;28;20021;-75
2021/09/04 02:10:04;;;;;;;19.83;10.88;;;;;;;;;;5052687;28;20039;-76
2021/09/04 02:12:29;;;;;;;24.23;10.07;;;;;;;;;;5052654;28;20029;-75
2021/09/04 02:14:54;;;;;;;20.50;10.25;;;;;;;;;;5052829;28;20064;-75
2021/09/04 02:17:20;;;;;;;23.63;9.82;;;;;;;;;;5052787;28;20112;-75
2021/09/04 02:19:45;;;;;;;18.02;9.30;;;;;;;;;;5052887;28;20033;-75
2021/09/04 02:22:11;;;;;;;24.58;9.82;;;;;;;;;;5052533;28;20040;-74
2021/09/04 02:24:37;;;;;;;22.95;10.07;;;;;;;;;;5052855;28;20061;-75
2021/09/04 02:27:02;;;;;;;18.25;9.50;;;;;;;;;;5052591;28;20041;-75
2021/09/04 02:29:27;;;;;;;22.17;9.50;;;;;;;;;;5052392;28;20024;-75
2021/09/04 02:31:53;;;;;;;21.65;9.73;;;;;;;;;;5052606;28;20055;-75
2021/09/04 02:34:18;;;;;;;22.40;10.15;;;;;;;;;;5052650;28;20048;-75
2021/09/04 02:36:43;;;;;;;18.33;9.60;;;;;;;;;;5052498;28;20135;-76
2021/09/04 02:39:09;;;;;;;24.85;10.48;;;;;;;;;;5052358;28;20124;-76
2021/09/04 02:41:34;;;;;;;19.40;9.73;;;;;;;;;;5052662;28;20090;-75
2021/09/04 02:43:59;;;;;;;16.38;8.95;;;;;;;;;;5052510;28;20021;-75
2021/09/04 02:46:24;;;;;;;20.15;9.13;;;;;;;;;;5052605;28;20021;-75
2021/09/04 02:48:50;;;;;;;27.40;11.32;;;;;;;;;;5052683;28;20114;-75
2021/09/04 02:51:15;;;;;;;17.27;8.23;;;;;;;;;;5052292;28;20481;-75
2021/09/04 02:53:40;;;;;;;23.58;10.02;;;;;;;;;;5051275;28;20032;-76
2021/09/04 02:56:06;;;;;;;29.20;10.05;;;;;;;;;;5052560;28;20492;-75
2021/09/04 02:58:31;;;;;;;25.52;10.25;;;;;;;;;;5055525;28;20017;-75
2021/09/04 03:00:56;;;;;;;22.23;11.07;;;;;;;;;;5056115;28;20070;-75
2021/09/04 03:03:22;;;;;;;21.98;9.63;;;;;;;;;;5056004;28;20032;-75
2021/09/04 03:05:47;;;;;;;20.02;9.73;;;;;;;;;;5055930;28;20064;-75
2021/09/04 03:08:12;;;;;;;21.95;9.80;;;;;;;;;;5055986;28;20029;-75
2021/09/04 03:10:38;;;;;;;24.13;10.40;;;;;;;;;;5055893;28;20036;-76
2021/09/04 03:13:03;;;;;;;26.75;9.90;;;;;;;;;;5055802;28;20043;-75
2021/09/04 03:15:28;;;;;;;22.85;9.68;;;;;;;;;;5055850;28;20049;-76
2021/09/04 03:17:54;;;;;;;19.33;9.73;;;;;;;;;;5055740;28;20040;-75
2021/09/04 03:20:19;;;;;;;22.80;11.27;;;;;;;;;;5055768;28;20043;-75
2021/09/04 03:22:44;;;;;;;20.27;9.55;;;;;;;;;;5055534;28;20021;-76
2021/09/04 03:25:10;;;;;;;27.90;10.18;;;;;;;;;;5055650;28;20062;-74
2021/09/04 03:27:35;;;;;;;27.73;10.30;;;;;;;;;;5055546;28;20412;-75
2021/09/04 03:30:01;;;;;;;19.20;9.25;;;;;;;;;;5055495;28;20021;-75
2021/09/04 03:32:26;;;;;;;25.23;10.88;;;;;;;;;;5055123;28;20049;-75
2021/09/04 03:34:52;;;;;;;22.80;9.65;;;;;;;;;;5055369;28;20060;-74
2021/09/04 03:37:18;;;;;;;19.85;12.00;;;;;;;;;;5055452;28;20024;-76
2021/09/04 03:39:43;;;;;;;18.45;8.98;;;;;;;;;;5055317;28;20032;-74
2021/09/04 03:42:08;;;;;;;21.02;9.40;;;;;;;;;;5054980;28;20071;-75
2021/09/04 03:44:34;;;;;;;19.30;9.25;;;;;;;;;;5055323;28;20029;-75
2021/09/04 03:46:59;;;;;;;27.83;10.82;;;;;;;;;;5054519;28;20033;-76
2021/09/04 03:49:24;;;;;;;27.27;9.18;;;;;;;;;;5055181;28;20017;-75
2021/09/04 03:51:50;;;;;;;19.55;9.05;;;;;;;;;;5055145;28;20036;-75
2021/09/04 03:54:15;;;;;;;20.45;9.55;;;;;;;;;;5054961;28;20037;-76
2021/09/04 03:56:41;;;;;;;21.35;9.65;;;;;;;;;;5055102;28;20159;-75
2021/09/04 03:59:06;;;;;;;22.38;10.18;;;;;;;;;;5054897;28;20040;-76
2021/09/04 04:01:31;;;;;;;21.48;9.75;;;;;;;;;;5055013;28;20035;-75
2021/09/04 04:03:56;;;;;;;23.35;9.30;;;;;;;;;;5054921;28;20071;-75
2021/09/04 04:06:22;;;;;;;21.02;9.57;;;;;;;;;;5054915;28;20390;-75
2021/09/04 04:08:47;;;;;;;18.90;9.73;;;;;;;;;;5054638;28;20380;-75
2021/09/04 04:11:12;;;;;;;20.95;9.50;;;;;;;;;;5054810;28;20021;-75
2021/09/04 04:13:38;;;;;;;19.65;10.80;;;;;;;;;;5054377;28;20037;-75
2021/09/04 04:16:04;;;;;;;20.50;9.80;;;;;;;;;;5054726;28;20029;-75
2021/09/04 04:18:29;;;;;;;25.70;10.57;;;;;;;;;;5054528;28;20105;-76
2021/09/04 04:20:54;;;;;;;21.80;9.52;;;;;;;;;;5054582;28;20108;-76
2021/09/04 04:23:20;;;;;;;21.30;9.98;;;;;;;;;;5054584;28;20035;-75
2021/09/04 04:25:45;;;;;;;20.95;10.40;;;;;;;;;;5054526;28;20029;-75
2021/09/04 04:28:10;;;;;;;20.95;10.50;;;;;;;;;;5054411;28;20029;-75
2021/09/04 04:30:36;;;;;;;20.30;10.73;;;;;;;;;;5054310;28;20033;-75
2021/09/04 04:33:01;;;;;;;23.08;9.82;;;;;;;;;;5054378;28;20045;-75
2021/09/04 04:35:26;;;;;;;30.70;11.38;;;;;;;;;;5054230;28;20059;-75
2021/09/04 04:37:51;;;;;;;24.45;10.27;;;;;;;;;;5054414;28;20098;-75
2021/09/04 04:40:17;;;;;;;22.75;9.60;;;;;;;;;;5054145;28;20021;-75
2021/09/04 04:42:42;;;;;;;25.88;10.43;;;;;;;;;;5054173;28;20480;-75
2021/09/04 04:45:08;;;;;;;20.30;9.80;;;;;;;;;;5054004;28;20055;-75
2021/09/04 04:47:34;;;;;;;21.98;11.13;;;;;;;;;;5054078;28;20040;-75
2021/09/04 04:49:59;;;;;;;18.05;9.70;;;;;;;;;;5054036;28;20021;-75
2021/09/04 04:52:24;;;;;;;31.40;11.07;;;;;;;;;;5054088;28;20031;-75
2021/09/04 04:54:50;;;;;;;22.25;9.77;;;;;;;;;;5053788;28;20033;-75
2021/09/04 04:57:15;;;;;;;27.02;10.13;;;;;;;;;;5052698;28;20104;-75
2021/09/04 04:59:40;;;;;;;25.20;10.57;;;;;;;;;;5053838;28;20535;-75
2021/09/04 05:02:06;;;;;;;24.17;10.05;;;;;;;;;;5053791;28;20017;-75
2021/09/04 05:04:31;;;;;;;23.50;9.85;;;;;;;;;;5053678;28;20132;-75
2021/09/04 05:06:56;;;;;;;20.85;9.05;;;;;;;;;;5053697;28;20033;-75
2021/09/04 05:09:21;;;;;;;15.82;9.23;;;;;;;;;;5053743;28;20370;-75
2021/09/04 05:11:47;;;;;;;19.92;10.32;;;;;;;;;;5053603;28;20036;-75
2021/09/04 05:14:12;;;;;;;17.30;9.48;;;;;;;;;;5053482;28;20071;-75
2021/09/04 05:16:38;;;;;;;26.90;9.70;;;;;;;;;;5053569;28;20023;-75
2021/09/04 05:19:03;;;;;;;20.00;9.38;;;;;;;;;;5053308;28;20025;-75
2021/09/04 05:21:29;;;;;;;24.00;9.55;;;;;;;;;;5053173;28;20033;-75
2021/09/04 05:23:54;;;;;;;20.38;9.75;;;;;;;;;;5053543;28;20106;-75
2021/09/04 05:26:19;;;;;;;22.23;8.85;;;;;;;;;;5053537;28;20557;-75
2021/09/04 05:28:44;;;;;;;19.30;8.85;;;;;;;;;;5053317;28;20029;-75
2021/09/04 05:31:10;;;;;;;17.77;8.80;;;;;;;;;;5053292;28;20377;-76
2021/09/04 05:33:35;;;;;;;22.60;8.88;;;;;;;;;;5053426;28;20094;-75
2021/09/04 05:36:00;;;;;;;25.02;9.35;;;;;;;;;;5053351;28;20489;-75
2021/09/04 05:38:25;;;;;;;25.55;8.70;;;;;;;;;;5052990;28;20070;-75
2021/09/04 05:40:51;;;;;;;22.00;8.55;;;;;;;;;;5053225;28;20028;-76
2021/09/04 05:43:16;;;;;;;16.30;9.15;;;;;;;;;;5053178;28;20112;-76
2021/09/04 05:45:41;;;;;;;21.65;9.30;;;;;;;;;;5053299;28;20358;-75
2021/09/04 05:48:07;;;;;;;18.88;8.65;;;;;;;;;;5052963;28;20025;-75
2021/09/04 05:50:32;;;;;;;24.15;9.27;;;;;;;;;;5051983;28;20033;-76
2021/09/04 05:52:57;;;;;;;24.55;9.27;;;;;;;;;;5053177;28;20045;-75
2021/09/04 05:55:22;;;;;;;19.50;9.02;;;;;;;;;;5053041;28;20078;-75
2021/09/04 05:57:48;;;;;;;17.23;8.13;;;;;;;;;;5052912;28;20044;-75
2021/09/04 06:00:13;;;;;;;29.58;9.95;;;;;;;;;;5053005;28;20079;-75
2021/09/04 06:02:40;;;;;;;26.65;9.93;;;;;;;;;;5052858;28;20116;-74
2021/09/04 06:05:05;;;;;;;19.02;8.68;;;;;;;;;;5053033;28;20036;-75
2021/09/04 06:07:31;;;;;;;19.50;8.80;;;;;;;;;;5053080;28;20029;-75
2021/09/04 06:09:56;;;;;;;21.77;8.65;;;;;;;;;;5052913;28;20040;-75
2021/09/04 06:12:21;;;;;;;20.58;9.23;;;;;;;;;;5053111;28;20060;-75
2021/09/04 06:14:47;;;;;;;18.67;8.32;;;;;;;;;;5052882;28;20465;-75
2021/09/04 06:17:12;;;;;;;22.05;9.07;;;;;;;;;;5052962;28;20523;-76
2021/09/04 06:19:37;;;;;;;19.63;8.70;;;;;;;;;;5052968;28;20025;-75
2021/09/04 06:22:02;;;;;;;17.55;8.13;;;;;;;;;;5052941;28;20070;-75
2021/09/04 06:24:28;;;;;;;15.75;8.57;;;;;;;;;;5052823;28;20033;-75
2021/09/04 06:26:53;;;;;;;19.35;8.13;;;;;;;;;;5052913;28;20079;-75
2021/09/04 06:29:18;;;;;;;19.45;8.50;;;;;;;;;;5052732;28;20143;-75
2021/09/04 06:31:43;;;;;;;18.10;7.57;;;;;;;;;;5053280;28;20075;-75
2021/09/04 06:34:09;;;;;;;17.40;7.53;;;;;;;;;;5055249;28;20048;-76
2021/09/04 06:36:34;;;;;;;17.98;8.60;;;;;;;;;;5056506;28;20500;-75
2021/09/04 06:38:59;;;;;;;17.38;8.23;;;;;;;;;;5056768;28;20361;-75
2021/09/04 06:41:24;;;;;;;16.33;8.15;;;;;;;;;;5056414;28;20457;-75
2021/09/04 06:43:50;;;;;;;15.15;7.88;;;;;;;;;;5056473;28;20017;-76
2021/09/04 06:46:15;;;;;;;18.20;7.20;;;;;;;;;;5056335;28;20422;-76
2021/09/04 06:48:40;;;;;;;18.02;7.85;;;;;;;;;;5056315;28;20041;-75
2021/09/04 06:51:05;;;;;;;17.48;7.95;;;;;;;;;;5056308;28;20017;-75
2021/09/04 06:53:31;;;;;;;15.00;6.97;;;;;;;;;;5056172;28;20045;-75
2021/09/04 06:55:56;;;;;;;17.40;7.90;;;;;;;;;;5056480;28;20057;-75
2021/09/04 06:58:21;;;;;;;16.90;7.20;;;;;;;;;;5056415;28;20059;-75
2021/09/04 07:00:47;;;;;;;17.52;7.65;;;;;;;;;;5056184;28;20081;-75
2021/09/04 07:03:12;;;;;;;17.75;7.75;;;;;;;;;;5056067;28;20040;-77
2021/09/04 07:05:37;;;;;;;15.20;7.25;;;;;;;;;;5055971;28;20028;-76
2021/09/04 07:08:03;;;;;;;18.35;7.15;;;;;;;;;;5056275;28;20025;-76
2021/09/04 07:10:28;;;;;;;12.43;7.00;;;;;;;;;;5055960;28;20068;-75
2021/09/04 07:12:53;;;;;;;15.77;7.07;;;;;;;;;;5055837;28;20488;-75
2021/09/04 07:15:18;;;;;;;15.68;7.35;;;;;;;;;;5054553;28;20033;-75
2021/09/04 07:17:44;;;;;;;14.60;6.70;;;;;;;;;;5055575;28;20037;-75
2021/09/04 07:20:09;;;;;;;15.90;6.63;;;;;;;;;;5055803;28;20021;-75
2021/09/04 07:22:35;;;;;;;14.98;6.70;;;;;;;;;;5055627;28;20100;-75
2021/09/04 07:25:00;;;;;;;14.45;6.10;;;;;;;;;;5055758;28;20063;-75
2021/09/04 07:27:25;;;;;;;16.77;7.10;;;;;;;;;;5055530;28;20468;-76
2021/09/04 07:29:51;;;;;;;14.70;7.43;;;;;;;;;;5055632;28;20029;-76
2021/09/04 07:32:16;;;;;;;15.30;7.15;;;;;;;;;;5055340;28;20045;-75
2021/09/04 07:34:41;;;;;;;14.13;6.75;;;;;;;;;;5055401;28;20039;-76
2021/09/04 07:37:06;;;;;;;15.20;7.35;;;;;;;;;;5055378;28;20025;-75
2021/09/04 07:39:32;;;;;;;18.38;8.00;;;;;;;;;;5055261;28;20102;-75
2021/09/04 07:41:57;;;;;;;12.93;7.35;;;;;;;;;;5054998;28;20029;-75
2021/09/04 07:44:22;;;;;;;13.93;6.90;;;;;;;;;;5054747;28;20061;-75
2021/09/04 07:46:47;;;;;;;19.08;7.22;;;;;;;;;;5054973;28;20061;-75
2021/09/04 07:49:13;;;;;;;11.63;6.43;;;;;;;;;;5055200;28;20449;-77
2021/09/04 07:51:38;;;;;;;11.65;5.88;;;;;;;;;;5055155;28;20131;-75
2021/09/04 07:54:03;;;;;;;13.70;6.65;;;;;;;;;;5054803;28;20401;-75
2021/09/04 07:56:29;;;;;;;10.13;6.28;;;;;;;;;;5054986;28;20028;-76
2021/09/04 07:58:54;;;;;;;11.38;6.97;;;;;;;;;;5055013;28;20467;-76
2021/09/04 08:01:19;;;;;;;16.23;7.53;;;;;;;;;;5055091;28;20033;-76
2021/09/04 08:03:44;;;;;;;11.40;7.00;;;;;;;;;;5055003;28;20044;-75
2021/09/04 08:06:10;;;;;;;16.95;7.50;;;;;;;;;;5054929;28;20033;-76
2021/09/04 08:08:36;;;;;;;14.82;8.05;;;;;;;;;;5054622;28;20036;-76
2021/09/04 08:11:02;;;;;;;15.05;7.00;;;;;;;;;;5054800;28;20063;-76
2021/09/04 08:13:27;;;;;;;9.75;6.88;;;;;;;;;;5054701;28;20028;-75
2021/09/04 08:15:52;;;;;;;14.27;7.57;;;;;;;;;;5054788;28;20033;-76
2021/09/04 08:18:18;;;;;;;11.75;6.55;;;;;;;;;;5054613;28;20029;-76
2021/09/04 08:20:43;;;;;;;12.48;6.93;;;;;;;;;;5054647;28;20029;-75
2021/09/04 08:23:09;;;;;;;16.55;7.40;;;;;;;;;;5054326;28;20056;-75
2021/09/04 08:25:34;;;;;;;13.57;6.55;;;;;;;;;;5054447;28;20036;-75
2021/09/04 08:28:00;;;;;;;11.13;6.57;;;;;;;;;;5054607;28;20036;-75
2021/09/04 08:30:25;;;;;;;11.32;6.05;;;;;;;;;;5054355;28;20029;-76
2021/09/04 08:32:50;;;;;;;10.40;6.22;;;;;;;;;;5054136;28;20074;-75
2021/09/04 08:35:16;;;;;;;17.93;7.70;;;;;;;;;;5054235;28;20052;-75
2021/09/04 08:37:42;;;;;;;11.82;6.60;;;;;;;;;;5054449;28;20352;-75
2021/09/04 08:40:08;;;;;;;12.50;6.78;;;;;;;;;;5054165;28;20045;-75
2021/09/04 08:42:33;;;;;;;12.90;6.60;;;;;;;;;;5054156;28;20057;-75
2021/09/04 08:44:59;;;;;;;12.27;7.30;;;;;;;;;;5054157;28;20040;-76
2021/09/04 08:47:25;;;;;;;11.10;6.20;;;;;;;;;;5054100;28;20118;-75
2021/09/04 08:49:50;;;;;;;11.90;7.18;;;;;;;;;;5054156;28;20033;-77
2021/09/04 08:52:18;;;;;;;12.97;7.07;;;;;;;;;;5064437;28;20024;-76
2021/09/04 08:54:44;;;;;;;12.07;6.75;;;;;;;;;;5059466;28;20711;-75
2021/09/04 08:57:09;;;;;;;11.93;6.22;;;;;;;;;;5069570;28;20115;-76
2021/09/04 08:59:35;;;;;;;11.43;6.63;;;;;;;;;;5057380;28;20547;-75
2021/09/04 09:02:02;;;;;;;11.43;7.10;;;;;;;;;;5067517;28;20032;-75
2021/09/04 09:04:28;;;;;;;12.27;6.22;;;;;;;;;;5063562;28;20285;-75
2021/09/04 09:06:53;;;;;;;13.30;8.00;;;;;;;;;;5059998;28;20441;-74
2021/09/04 09:09:23;;;;;;;16.67;7.70;;;;;;;;;;5069812;28;20025;-75
2021/09/04 09:11:49;;;;;;;13.48;6.88;;;;;;;;;;5058015;28;20032;-75
2021/09/04 09:14:15;;;;;;;15.27;8.02;;;;;;;;;;5065323;28;20118;-75
2021/09/04 09:16:56;;;;;;;14.65;7.53;;;;;;;;;;5065022;28;20423;-74
2021/09/04 09:19:28;;;;;;;13.02;6.60;;;;;;;;;;5056698;28;20033;-76
2021/09/04 09:21:56;;;;;;;12.82;7.00;;;;;;;;;;5068369;28;20033;-74
2021/09/04 09:24:23;;;;;;;12.40;7.43;;;;;;;;;;5062508;28;20021;-75
2021/09/04 09:27:00;;;;;;;9.63;6.28;;;;;;;;;;5060624;28;20075;-74
2021/09/04 09:29:30;;;;;;;13.27;7.10;;;;;;;;;;5069749;28;20027;-75
2021/09/04 09:32:00;;;;;;;12.50;7.05;;;;;;;;;;5058627;28;20405;-75
2021/09/04 09:34:25;;;;;;;10.80;6.35;;;;;;;;;;5063604;28;20037;-75
2021/09/04 09:36:52;;;;;;;11.35;7.00;;;;;;;;;;5065907;28;20081;-75
2021/09/04 09:39:17;;;;;;;16.17;8.05;;;;;;;;;;5056009;28;20496;-77
2021/09/04 09:41:49;;;;;;;11.77;7.32;;;;;;;;;;5069242;28;20139;-76
2021/09/04 09:44:21;;;;;;;14.13;7.28;;;;;;;;;;5060371;28;20041;-77
2021/09/04 09:46:48;;;;;;;13.20;8.30;;;;;;;;;;5052667;28;20386;-76
2021/09/04 09:49:13;;;;;;;14.25;7.72;;;;;;;;;;5052217;28;20059;-75
2021/09/04 09:51:39;;;;;;;21.27;9.23;;;;;;;;;;5053124;28;20449;-75
2021/09/04 09:54:04;;;;;;;12.55;8.15;;;;;;;;;;5053124;28;20075;-75
2021/09/04 09:56:29;;;;;;;13.70;8.38;;;;;;;;;;5052814;28;20124;-75
2021/09/04 09:58:55;;;;;;;12.90;8.30;;;;;;;;;;5053164;28;20028;-75
2021/09/04 10:01:20;;;;;;;14.15;8.13;;;;;;;;;;5052910;28;20360;-76
2021/09/04 10:03:46;;;;;;;15.40;8.52;;;;;;;;;;5053153;28;20390;-76
2021/09/04 10:06:12;;;;;;;14.77;8.80;;;;;;;;;;5054558;28;20020;-76
2021/09/04 10:08:37;;;;;;;15.70;9.68;;;;;;;;;;5057037;28;20095;-75
2021/09/04 10:11:05;;;;;;;15.40;8.43;;;;;;;;;;5057146;28;20029;-76
2021/09/04 10:13:30;;;;;;;13.30;8.77;;;;;;;;;;5056957;28;20418;-76
2021/09/04 10:15:56;;;;;;;13.98;8.48;;;;;;;;;;5057043;28;20104;-75
2021/09/04 10:18:23;;;;;;;13.80;7.40;;;;;;;;;;5056569;28;20029;-76
2021/09/04 10:20:58;;;;;;;16.98;8.70;;;;;;;;;;5057038;28;20458;-75
2021/09/04 10:23:29;;;;;;;11.82;7.30;;;;;;;;;;5056488;28;20029;-76
2021/09/04 10:25:54;;;;;;;17.17;8.13;;;;;;;;;;5057007;28;20140;-75
2021/09/04 10:28:20;;;;;;;14.13;7.93;;;;;;;;;;5056366;28;20057;-76
2021/09/04 10:30:52;;;;;;;13.05;9.05;;;;;;;;;;5056751;28;20254;-76
2021/09/04 10:33:17;;;;;;;15.25;8.20;;;;;;;;;;5056121;28;20060;-75
2021/09/04 10:35:49;;;;;;;15.38;8.48;;;;;;;;;;5056325;28;20021;-75
2021/09/04 10:38:17;;;;;;;17.50;8.73;;;;;;;;;;5056584;28;20064;-75
2021/09/04 10:40:43;;;;;;;14.75;8.32;;;;;;;;;;5056762;28;20033;-74
2021/09/04 10:43:08;;;;;;;15.95;8.32;;;;;;;;;;5056507;28;20491;-75
2021/09/04 10:45:35;;;;;;;13.15;8.57;;;;;;;;;;5056422;28;20041;-75
2021/09/04 10:48:00;;;;;;;16.27;8.45;;;;;;;;;;5056088;28;20523;-75
2021/09/04 10:50:27;;;;;;;18.73;8.85;;;;;;;;;;5056212;28;20021;-74
2021/09/04 10:52:53;;;;;;;16.95;9.80;;;;;;;;;;5056347;28;20033;-75
2021/09/04 10:55:28;;;;;;;12.70;8.63;;;;;;;;;;5056210;28;20043;-75
2021/09/04 10:58:06;;;;;;;15.10;8.88;;;;;;;;;;5055012;28;20029;-74
2021/09/04 11:00:40;;;;;;;14.75;8.35;;;;;;;;;;5056156;28;20025;-74
2021/09/04 11:03:07;;;;;;;17.47;8.70;;;;;;;;;;5055864;28;20551;-75
2021/09/04 11:05:47;;;;;;;14.60;8.52;;;;;;;;;;5055633;28;20805;-75
2021/09/04 11:08:19;;;;;;;20.30;7.88;;;;;;;;;;5056050;28;20111;-75
2021/09/04 11:10:45;;;;;;;14.57;7.32;;;;;;;;;;5056004;28;20033;-74
2021/09/04 11:13:13;;;;;;;19.42;9.05;;;;;;;;;;5055934;28;20017;-74
2021/09/04 11:15:42;;;;;;;17.60;8.27;;;;;;;;;;5055845;28;20037;-74
2021/09/04 11:18:08;;;;;;;17.35;8.65;;;;;;;;;;5055018;28;20033;-74
2021/09/04 11:20:41;;;;;;;18.50;8.90;;;;;;;;;;5055453;28;20055;-74
2021/09/04 11:23:07;;;;;;;21.98;9.48;;;;;;;;;;5055755;28;20086;-74
2021/09/04 11:25:33;;;;;;;18.95;8.70;;;;;;;;;;5055638;28;20116;-75
2021/09/04 11:27:58;;;;;;;15.93;8.57;;;;;;;;;;5055600;28;20404;-74
2021/09/04 11:30:23;;;;;;;13.32;8.27;;;;;;;;;;5055207;28;20044;-74
2021/09/04 11:32:48;;;;;;;17.30;8.10;;;;;;;;;;5055567;28;20136;-74
2021/09/04 11:35:14;;;;;;;17.35;9.35;;;;;;;;;;5055062;28;20067;-74
2021/09/04 11:37:39;;;;;;;15.48;9.40;;;;;;;;;;5055327;28;20039;-75
2021/09/04 11:40:16;;;;;;;17.08;8.95;;;;;;;;;;5054813;28;20111;-74
2021/09/04 11:42:41;;;;;;;14.77;8.73;;;;;;;;;;5054976;28;20486;-74
2021/09/04 11:45:06;;;;;;;17.17;7.93;;;;;;;;;;5055550;28;20107;-75
2021/09/04 11:47:33;;;;;;;13.95;8.10;;;;;;;;;;5055248;28;20109;-74
2021/09/04 11:50:02;;;;;;;15.95;8.27;;;;;;;;;;5055274;28;20025;-74
2021/09/04 11:52:29;;;;;;;14.52;8.13;;;;;;;;;;5055079;28;20059;-76
2021/09/04 11:55:04;;;;;;;12.77;7.55;;;;;;;;;;5054939;28;20033;-75
2021/09/04 11:57:31;;;;;;;14.98;7.50;;;;;;;;;;5055052;28;20025;-75
2021/09/04 12:00:00;;;;;;;17.40;7.13;;;;;;;;;;5054686;28;20036;-75
2021/09/04 12:02:25;;;;;;;17.67;7.07;;;;;;;;;;5054983;28;20025;-75
2021/09/04 12:04:50;;;;;;;9.88;7.00;;;;;;;;;;5054978;28;20021;-75
2021/09/04 12:07:16;;;;;;;14.38;7.07;;;;;;;;;;5055033;28;20462;-75
2021/09/04 12:09:42;;;;;;;13.77;7.00;;;;;;;;;;5053528;28;20139;-75
2021/09/04 12:12:08;;;;;;;14.73;7.22;;;;;;;;;;5054804;28;20029;-76
2021/09/04 12:14:34;;;;;;;13.98;8.00;;;;;;;;;;5054699;28;20041;-75
2021/09/04 12:16:59;;;;;;;15.20;6.93;;;;;;;;;;5054707;28;20476;-77
2021/09/04 12:19:25;;;;;;;13.90;6.57;;;;;;;;;;5054580;28;20099;-75
2021/09/04 12:21:51;;;;;;;10.63;6.07;;;;;;;;;;5054709;28;20090;-75
2021/09/04 12:24:16;;;;;;;15.18;6.97;;;;;;;;;;5054527;28;20017;-75
2021/09/04 12:26:51;;;;;;;14.07;6.78;;;;;;;;;;5054535;28;20449;-75
2021/09/04 12:29:16;;;;;;;18.02;8.10;;;;;;;;;;5054491;28;20040;-75
2021/09/04 12:31:43;;;;;;;12.63;6.53;;;;;;;;;;5053895;28;20033;-75
2021/09/04 12:34:08;;;;;;;12.10;6.38;;;;;;;;;;5054349;28;20049;-75
2021/09/04 12:36:37;;;;;;;11.95;6.38;;;;;;;;;;5054098;28;20025;-76
2021/09/04 12:39:10;;;;;;;13.10;6.55;;;;;;;;;;5053993;28;20029;-76
2021/09/04 12:41:35;;;;;;;12.07;7.20;;;;;;;;;;5054182;28;20041;-75
2021/09/04 12:44:05;;;;;;;16.60;6.90;;;;;;;;;;5054185;28;20119;-76
2021/09/04 12:46:30;;;;;;;15.40;7.13;;;;;;;;;;5054077;28;20056;-75
2021/09/04 12:48:56;;;;;;;18.00;7.95;;;;;;;;;;5054154;28;20025;-75
2021/09/04 12:51:30;;;;;;;12.25;7.20;;;;;;;;;;5054112;28;20017;-75
2021/09/04 12:54:00;;;;;;;14.83;7.73;;;;;;;;;;5053958;28;20041;-75
2021/09/04 12:56:39;;;;;;;13.88;7.47;;;;;;;;;;5053963;28;20159;-76
2021/09/04 12:59:05;;;;;;;13.93;6.78;;;;;;;;;;5053877;28;20037;-75
2021/09/04 13:01:31;;;;;;;10.07;5.50;;;;;;;;;;5053610;28;20550;-75
2021/09/04 13:03:56;;;;;;;15.63;7.60;;;;;;;;;;5053861;28;20057;-75
2021/09/04 13:06:21;;;;;;;15.32;7.10;;;;;;;;;;5053783;28;20024;-75
2021/09/04 13:08:47;;;;;;;12.13;6.75;;;;;;;;;;5053716;28;20579;-75
2021/09/04 13:11:12;;;;;;;12.20;6.57;;;;;;;;;;5053778;28;20017;-75
2021/09/04 13:13:37;;;;;;;12.73;6.97;;;;;;;;;;5053547;28;20044;-75
2021/09/04 13:16:03;;;;;;;11.20;6.53;;;;;;;;;;5053717;28;20033;-75
2021/09/04 13:18:28;;;;;;;15.77;7.28;;;;;;;;;;5053579;28;20124;-76
2021/09/04 13:20:53;;;;;;;14.90;7.75;;;;;;;;;;5053315;28;20102;-75
2021/09/04 13:23:18;;;;;;;17.55;7.18;;;;;;;;;;5053517;28;20058;-75
2021/09/04 13:25:44;;;;;;;15.60;7.18;;;;;;;;;;5053513;28;20088;-75
2021/09/04 13:28:09;;;;;;;14.95;7.03;;;;;;;;;;5053211;28;20024;-75
2021/09/04 13:30:34;;;;;;;13.40;5.93;;;;;;;;;;5053545;28;20496;-75
2021/09/04 13:32:59;;;;;;;12.18;6.20;;;;;;;;;;5051920;28;20128;-75
2021/09/04 13:35:25;;;;;;;14.32;6.30;;;;;;;;;;5053245;28;20044;-75
2021/09/04 13:37:50;;;;;;;13.80;5.65;;;;;;;;;;5053475;28;20124;-75
2021/09/04 13:40:15;;;;;;;13.00;6.07;;;;;;;;;;5052944;28;20021;-75
2021/09/04 13:42:40;;;;;;;11.90;6.35;;;;;;;;;;5052890;28;20480;-75
2021/09/04 13:45:07;;;;;;;13.23;7.38;;;;;;;;;;5053227;28;20033;-75
2021/09/04 13:47:33;;;;;;;13.73;7.68;;;;;;;;;;5053408;28;20135;-75
2021/09/04 13:49:58;;;;;;;14.27;6.60;;;;;;;;;;5053251;28;20048;-75
2021/09/04 13:52:23;;;;;;;11.38;6.63;;;;;;;;;;5053413;28;20036;-75
2021/09/04 13:54:49;;;;;;;10.48;6.22;;;;;;;;;;5053118;28;20380;-75
2021/09/04 13:57:14;;;;;;;11.88;6.72;;;;;;;;;;5052097;28;20456;-75
2021/09/04 13:59:39;;;;;;;13.40;6.30;;;;;;;;;;5053116;28;20041;-75
2021/09/04 14:02:04;;;;;;;12.30;6.22;;;;;;;;;;5052847;28;20025;-75
2021/09/04 14:04:30;;;;;;;12.50;7.03;;;;;;;;;;5053104;28;20029;-75
2021/09/04 14:06:55;;;;;;;10.38;6.13;;;;;;;;;;5052787;28;20098;-75
2021/09/04 14:09:20;;;;;;;15.05;6.95;;;;;;;;;;5052955;28;20021;-75
2021/09/04 14:11:45;;;;;;;11.18;6.78;;;;;;;;;;5053045;28;20430;-75
2021/09/04 14:14:11;;;;;;;13.82;6.93;;;;;;;;;;5052952;28;20155;-75
2021/09/04 14:16:36;;;;;;;11.38;7.00;;;;;;;;;;5052896;28;20013;-75
2021/09/04 14:19:01;;;;;;;9.02;5.95;;;;;;;;;;5053067;28;20033;-75